LIMJ/GOA METAR and TAF weather

Enter ICAO airport designator
Station Type Date Time Source
LIMJ METAR 2018/12/18 18:50 UTC NOAA

LIMJ 181850Z 34005KT 310V020 9999 SCT025 BKN030 10/07 Q1026


Station Type Date Time Source
LIMJ Decoded METAR 2018/12/18 18:50 UTC NOAA

Genova / Sestri, Italy (LIMJ) 44-25N 008-51E 3M
Dec 18, 2018 - 01:50 PM EST / 2018.12.18 1850 UTC
Wind: from the NNW (340 degrees) at 6 MPH (5 KT) (direction variable):0
Visibility: greater than 7 mile(s):0
Sky conditions: mostly cloudy
Temperature: 50 F (10 C)
Dew Point: 44 F (7 C)
Relative Humidity: 81%
Pressure (altimeter): 30.30 in. Hg (1026 hPa)
ob: LIMJ 181850Z 34005KT 310V020 9999 SCT025 BKN030 10/07 Q1026
cycle: 19

Station Type Date Time Source
LIMJ TAF 2018/12/18 18:24 UTC NOAA

TAF LIMJ 181700Z 1818/1918 03006KT 9999 BKN030
BECMG 1907/1910 4000 RA BKN010 BKN025


Example: see airport list